createdAt,value
2022-12-13T00:00:18.215Z,3.99
2022-12-13T00:01:18.408Z,3.95
2022-12-13T00:02:18.635Z,3.96
2022-12-13T00:03:18.778Z,3.94
2022-12-13T00:04:18.964Z,3.94
2022-12-13T00:05:19.106Z,3.92
2022-12-13T00:06:19.291Z,3.91
2022-12-13T00:07:19.474Z,3.92
2022-12-13T00:08:19.694Z,3.94
2022-12-13T00:09:19.797Z,3.91
2022-12-13T00:10:19.983Z,3.88
2022-12-13T00:11:20.132Z,3.86
2022-12-13T00:12:20.334Z,3.84
2022-12-13T00:13:20.474Z,3.81
2022-12-13T00:14:20.655Z,3.81
2022-12-13T00:15:20.813Z,3.81
2022-12-13T00:16:21.016Z,3.78
2022-12-13T00:17:21.170Z,3.78
2022-12-13T00:18:21.332Z,3.83
2022-12-13T00:19:21.510Z,3.80
2022-12-13T00:20:21.673Z,3.80
2022-12-13T00:21:21.860Z,3.83
2022-12-13T00:22:22.062Z,3.84
2022-12-13T00:23:22.209Z,3.84
2022-12-13T00:24:22.391Z,3.83
2022-12-13T00:25:22.551Z,3.81
2022-12-13T00:26:22.720Z,3.81
2022-12-13T00:27:22.894Z,3.84
2022-12-13T00:28:23.061Z,3.84
2022-12-13T00:29:23.220Z,3.87
2022-12-13T00:30:23.396Z,3.86
2022-12-13T00:32:24.789Z,3.88
2022-12-13T00:33:23.899Z,3.91
2022-12-13T00:34:24.069Z,3.88
2022-12-13T00:35:24.247Z,3.87
2022-12-13T00:36:24.422Z,3.86
2022-12-13T00:37:24.619Z,3.87
2022-12-13T00:38:24.739Z,3.86
2022-12-13T00:39:24.908Z,3.84
2022-12-13T00:40:25.079Z,3.83
2022-12-13T00:41:25.240Z,3.83
2022-12-13T00:42:25.440Z,3.83
2022-12-13T00:43:25.598Z,3.84
2022-12-13T00:44:25.770Z,3.88
2022-12-13T00:45:25.968Z,3.84
2022-12-13T00:46:26.157Z,3.86
2022-12-13T00:47:26.328Z,3.86
2022-12-13T00:48:26.501Z,3.84
2022-12-13T00:49:26.664Z,3.83
2022-12-13T00:50:26.845Z,3.84
2022-12-13T00:51:27.016Z,3.86
2022-12-13T00:52:27.197Z,3.87
2022-12-13T00:53:27.366Z,3.88
2022-12-13T00:54:27.539Z,3.88
2022-12-13T00:55:27.725Z,3.87
2022-12-13T00:56:27.877Z,3.88
2022-12-13T00:57:28.055Z,3.87
2022-12-13T00:58:28.255Z,3.87
2022-12-13T00:59:28.396Z,3.88
2022-12-13T01:00:28.566Z,3.91
2022-12-13T01:01:28.782Z,3.88
2022-12-13T01:02:28.905Z,3.88
2022-12-13T01:03:29.101Z,3.87
2022-12-13T01:04:29.245Z,3.87
2022-12-13T01:06:04.181Z,3.88
2022-12-13T01:06:30.603Z,3.91
2022-12-13T01:07:29.823Z,3.92
2022-12-13T01:08:30.006Z,3.88
2022-12-13T01:09:30.124Z,3.91
2022-12-13T01:10:30.315Z,3.91
2022-12-13T01:11:30.474Z,3.94
2022-12-13T01:12:30.653Z,3.92
2022-12-13T01:13:30.826Z,3.92
2022-12-13T01:14:31.004Z,3.92
2022-12-13T01:15:31.174Z,3.94
2022-12-13T01:16:31.423Z,3.92
2022-12-13T01:17:31.534Z,3.95
2022-12-13T01:18:31.703Z,3.92
2022-12-13T01:19:31.897Z,3.95
2022-12-13T01:20:32.052Z,3.94
2022-12-13T01:21:32.222Z,3.92
2022-12-13T01:22:32.409Z,3.92
2022-12-13T01:23:32.571Z,3.91
2022-12-13T01:24:32.753Z,3.92
2022-12-13T01:25:32.932Z,3.87
2022-12-13T01:26:33.104Z,3.87
2022-12-13T01:27:33.270Z,3.86
2022-12-13T01:28:33.443Z,3.86
2022-12-13T01:29:33.602Z,3.86
2022-12-13T01:30:33.824Z,3.88
2022-12-13T01:31:33.949Z,3.84
2022-12-13T01:32:34.121Z,3.84
2022-12-13T01:33:34.288Z,3.83
2022-12-13T01:34:34.450Z,3.81
2022-12-13T01:35:34.609Z,3.83
2022-12-13T01:36:38.268Z,3.84
2022-12-13T01:37:37.376Z,3.83
2022-12-13T01:38:37.910Z,3.86
2022-12-13T01:39:38.329Z,3.83
2022-12-13T01:40:38.620Z,3.84
2022-12-13T01:41:35.599Z,3.87
2022-12-13T01:42:35.778Z,3.83
2022-12-13T01:43:35.940Z,3.84
2022-12-13T01:44:36.109Z,3.83
2022-12-13T01:45:36.269Z,3.84
2022-12-13T01:46:36.483Z,3.86
2022-12-13T01:47:36.625Z,3.87
2022-12-13T01:48:36.789Z,3.87
2022-12-13T01:49:36.970Z,3.86
2022-12-13T01:50:37.138Z,3.84
2022-12-13T01:51:37.297Z,3.83
2022-12-13T01:52:37.488Z,3.80
2022-12-13T01:53:37.647Z,3.78
2022-12-13T01:54:37.817Z,3.80
2022-12-13T01:55:41.588Z,3.81
2022-12-13T01:56:38.147Z,3.81
2022-12-13T01:57:42.138Z,3.81
2022-12-13T01:58:39.496Z,3.77
2022-12-13T01:59:38.676Z,3.78
2022-12-13T02:00:41.020Z,3.77
2022-12-13T02:01:39.047Z,3.77
2022-12-13T02:02:39.217Z,3.78
2022-12-13T02:03:39.400Z,3.74
2022-12-13T02:04:39.554Z,3.74
2022-12-13T02:05:39.710Z,3.76
2022-12-13T02:06:39.866Z,3.78
2022-12-13T02:07:40.052Z,3.76
2022-12-13T02:08:40.214Z,3.77
2022-12-13T02:09:40.386Z,3.78
2022-12-13T02:10:40.565Z,3.76
2022-12-13T02:11:40.726Z,3.77
2022-12-13T02:12:40.904Z,3.78
2022-12-13T02:13:41.074Z,3.81
2022-12-13T02:14:41.252Z,3.78
2022-12-13T02:15:41.449Z,3.78
2022-12-13T02:16:41.613Z,3.78
2022-12-13T02:17:44.560Z,3.80
2022-12-13T02:18:41.954Z,3.76
2022-12-13T02:19:42.135Z,3.77
2022-12-13T02:20:42.315Z,3.77
2022-12-13T02:21:42.473Z,3.80
2022-12-13T02:22:42.663Z,3.80
2022-12-13T02:23:42.793Z,3.81
2022-12-13T02:24:42.971Z,3.81
2022-12-13T02:25:43.143Z,3.81
2022-12-13T02:26:43.310Z,3.84
2022-12-13T02:27:43.556Z,3.84
2022-12-13T02:28:43.656Z,3.84
2022-12-13T02:29:43.832Z,3.81
2022-12-13T02:30:44.021Z,3.80
2022-12-13T02:31:44.202Z,3.81
2022-12-13T02:32:44.390Z,3.81
2022-12-13T02:33:44.530Z,3.81
2022-12-13T02:34:44.711Z,3.84
2022-12-13T02:35:44.900Z,3.83
2022-12-13T02:36:45.070Z,3.84
2022-12-13T02:37:45.285Z,3.83
2022-12-13T02:38:45.431Z,3.83
2022-12-13T02:39:45.611Z,3.84
2022-12-13T02:40:45.789Z,3.84
2022-12-13T02:41:45.970Z,3.84
2022-12-13T02:42:46.191Z,3.83
2022-12-13T02:43:46.320Z,3.83
2022-12-13T02:44:46.500Z,3.84
2022-12-13T02:45:46.670Z,3.84
2022-12-13T02:46:46.850Z,3.84
2022-12-13T02:47:47.029Z,3.86
2022-12-13T02:48:47.226Z,3.84
2022-12-13T02:49:47.359Z,3.87
2022-12-13T02:50:47.528Z,3.87
2022-12-13T02:51:47.709Z,3.86
2022-12-13T02:52:47.889Z,3.83
2022-12-13T02:53:48.079Z,3.83
2022-12-13T02:54:48.258Z,3.81
2022-12-13T02:55:48.439Z,3.80
2022-12-13T02:56:48.635Z,3.84
2022-12-13T02:57:48.822Z,3.81
2022-12-13T02:58:48.967Z,3.83
2022-12-13T02:59:52.616Z,3.80
2022-12-13T03:00:49.317Z,3.80
2022-12-13T03:01:49.604Z,3.83
2022-12-13T03:02:49.868Z,3.83
2022-12-13T03:03:49.907Z,3.84
2022-12-13T03:04:50.241Z,3.87
2022-12-13T03:05:50.227Z,3.87
2022-12-13T03:06:50.416Z,3.88
2022-12-13T03:07:50.652Z,3.87
2022-12-13T03:08:50.766Z,3.88
2022-12-13T03:09:50.946Z,3.88
2022-12-13T03:10:51.105Z,3.88
2022-12-13T03:11:51.286Z,3.86
2022-12-13T03:12:51.496Z,3.84
2022-12-13T03:13:51.639Z,3.81
2022-12-13T03:14:51.806Z,3.83
2022-12-13T03:15:52.045Z,3.81
2022-12-13T03:16:52.168Z,3.80
2022-12-13T03:17:52.364Z,3.83
2022-12-13T03:18:52.535Z,3.80
2022-12-13T03:19:52.726Z,3.83
2022-12-13T03:20:52.873Z,3.81
2022-12-13T03:21:53.044Z,3.81
2022-12-13T03:22:53.236Z,3.83
2022-12-13T03:23:53.386Z,3.84
2022-12-13T03:24:53.551Z,3.86
2022-12-13T03:25:53.716Z,3.83
2022-12-13T03:26:53.906Z,3.81
2022-12-13T03:27:54.091Z,3.80
2022-12-13T03:28:54.282Z,3.80
2022-12-13T03:29:54.467Z,3.81
2022-12-13T03:30:54.648Z,3.80
2022-12-13T03:31:54.792Z,3.80
2022-12-13T03:32:54.999Z,3.83
2022-12-13T03:33:55.132Z,3.83
2022-12-13T03:35:00.619Z,3.83
2022-12-13T03:35:56.482Z,3.84
2022-12-13T03:36:55.671Z,3.83
2022-12-13T03:37:55.838Z,3.83
2022-12-13T03:38:55.981Z,3.81
2022-12-13T03:39:56.172Z,3.83
2022-12-13T03:40:56.312Z,3.81
2022-12-13T03:41:56.503Z,3.83
2022-12-13T03:42:56.680Z,3.83
2022-12-13T03:43:56.867Z,3.83
2022-12-13T03:44:57.051Z,3.81
2022-12-13T03:45:57.249Z,3.84
2022-12-13T03:46:57.390Z,3.87
2022-12-13T03:47:57.580Z,3.87
2022-12-13T03:48:57.730Z,3.86
2022-12-13T03:49:57.892Z,3.84
2022-12-13T03:50:59.069Z,3.86
2022-12-13T03:51:58.249Z,3.86
2022-12-13T03:52:58.459Z,3.84
2022-12-13T03:53:58.631Z,3.86
2022-12-13T03:54:58.809Z,3.87
2022-12-13T03:55:58.979Z,3.84
2022-12-13T03:56:59.148Z,3.86
2022-12-13T03:58:03.292Z,3.86
2022-12-13T03:59:00.508Z,3.84
2022-12-13T03:59:59.668Z,3.84
2022-12-13T04:00:59.829Z,3.84
2022-12-13T04:02:00.070Z,3.83
2022-12-13T04:03:00.271Z,3.86
2022-12-13T04:04:00.377Z,3.86
2022-12-13T04:05:00.738Z,3.83
2022-12-13T04:06:00.706Z,3.83
2022-12-13T04:07:00.869Z,3.84
2022-12-13T04:08:01.199Z,3.81
2022-12-13T04:09:01.228Z,3.83
2022-12-13T04:10:01.408Z,3.83
2022-12-13T04:11:01.566Z,3.86
2022-12-13T04:12:01.756Z,3.86
2022-12-13T04:13:01.929Z,3.87
2022-12-13T04:14:02.098Z,3.91
2022-12-13T04:15:02.263Z,3.91
2022-12-13T04:16:02.681Z,3.88
2022-12-13T04:17:02.603Z,3.92
2022-12-13T04:18:02.776Z,3.92
2022-12-13T04:19:02.929Z,3.92
2022-12-13T04:20:03.096Z,3.94
2022-12-13T04:21:03.254Z,3.91
2022-12-13T04:22:03.423Z,3.88
2022-12-13T04:23:10.181Z,3.88
2022-12-13T04:24:04.775Z,3.87
2022-12-13T04:25:03.955Z,3.88
2022-12-13T04:26:04.124Z,3.87
2022-12-13T04:27:04.291Z,3.86
2022-12-13T04:28:04.481Z,3.86
2022-12-13T04:29:04.633Z,3.86
2022-12-13T04:30:04.845Z,3.86
2022-12-13T04:31:05.029Z,3.88
2022-12-13T04:32:05.143Z,3.91
2022-12-13T04:33:06.307Z,3.91
2022-12-13T04:34:05.473Z,3.91
2022-12-13T04:35:05.632Z,3.92
2022-12-13T04:36:05.798Z,3.94
2022-12-13T04:37:05.962Z,3.92
2022-12-13T04:38:06.142Z,3.94
2022-12-13T04:39:21.964Z,3.95
2022-12-13T04:40:07.461Z,3.96
2022-12-13T04:41:06.623Z,3.96
2022-12-13T04:42:06.792Z,3.98
2022-12-13T04:43:06.978Z,3.96
2022-12-13T04:44:07.143Z,3.96
2022-12-13T04:45:08.309Z,3.99
2022-12-13T04:46:07.505Z,3.96
2022-12-13T04:47:07.651Z,3.98
2022-12-13T04:48:07.832Z,3.96
2022-12-13T04:49:07.970Z,3.95
2022-12-13T04:50:08.141Z,3.94
2022-12-13T04:51:08.310Z,3.95
2022-12-13T04:52:08.480Z,3.96
2022-12-13T04:53:08.693Z,3.95
2022-12-13T04:54:23.555Z,3.92
2022-12-13T04:55:09.988Z,3.92
2022-12-13T04:56:09.180Z,3.92
2022-12-13T04:57:09.383Z,3.92
2022-12-13T04:58:09.569Z,3.91
2022-12-13T04:59:09.740Z,3.91
2022-12-13T05:00:09.908Z,3.91
2022-12-13T05:01:10.131Z,3.91
2022-12-13T05:02:10.356Z,3.91
2022-12-13T05:03:10.438Z,3.92
2022-12-13T05:04:10.616Z,3.94
2022-12-13T05:05:10.781Z,3.95
2022-12-13T05:06:27.546Z,3.95
2022-12-13T05:07:12.138Z,3.91
2022-12-13T05:08:11.374Z,3.87
2022-12-13T05:09:11.738Z,3.86
2022-12-13T05:10:11.667Z,3.86
2022-12-13T05:11:11.827Z,3.86
2022-12-13T05:12:22.599Z,3.86
2022-12-13T05:13:13.167Z,3.87
2022-12-13T05:14:12.356Z,3.87
2022-12-13T05:15:12.732Z,3.88
2022-12-13T05:16:12.722Z,3.86
2022-12-13T05:17:12.847Z,3.84
2022-12-13T05:18:13.015Z,3.86
2022-12-13T05:19:13.186Z,3.86
2022-12-13T05:20:13.356Z,3.87
2022-12-13T05:21:13.515Z,3.86
2022-12-13T05:22:19.460Z,3.87
2022-12-13T05:23:14.866Z,3.88
2022-12-13T05:24:15.045Z,3.87
2022-12-13T05:25:14.484Z,3.87
2022-12-13T05:26:14.384Z,3.88
2022-12-13T05:27:23.759Z,3.87
2022-12-13T05:28:27.469Z,3.88
2022-12-13T05:29:15.912Z,3.87
2022-12-13T05:30:15.062Z,3.84
2022-12-13T05:31:23.539Z,3.83
2022-12-13T05:32:16.519Z,3.84
2022-12-13T05:33:15.563Z,3.84
2022-12-13T05:34:15.766Z,3.86
2022-12-13T05:35:21.852Z,3.83
2022-12-13T05:36:17.101Z,3.83
2022-12-13T05:37:16.252Z,3.81
2022-12-13T05:38:16.432Z,3.81
2022-12-13T05:39:28.479Z,3.80
2022-12-13T05:40:17.779Z,3.81
2022-12-13T05:41:16.951Z,3.80
2022-12-13T05:42:17.114Z,3.77
2022-12-13T05:43:22.176Z,3.74
2022-12-13T05:44:18.480Z,3.77
2022-12-13T05:45:18.025Z,3.73
2022-12-13T05:46:17.818Z,3.69
2022-12-13T05:47:17.982Z,3.69
2022-12-13T05:48:24.473Z,3.68
2022-12-13T05:49:19.321Z,3.68
2022-12-13T05:50:18.481Z,3.69
2022-12-13T05:51:18.661Z,3.69
2022-12-13T05:52:18.843Z,3.69
2022-12-13T05:53:30.996Z,3.68
2022-12-13T05:54:20.209Z,3.68
2022-12-13T05:55:19.557Z,3.69
2022-12-13T05:56:22.546Z,3.70
2022-12-13T05:57:19.710Z,3.73
2022-12-13T05:58:23.328Z,3.73
2022-12-13T05:59:20.090Z,3.70
2022-12-13T06:00:29.218Z,3.73
2022-12-13T06:01:21.400Z,3.73
2022-12-13T06:02:21.856Z,3.70
2022-12-13T06:03:20.979Z,3.69
2022-12-13T06:04:22.233Z,3.66
2022-12-13T06:05:21.148Z,3.69
2022-12-13T06:06:21.313Z,3.68
2022-12-13T06:07:21.487Z,3.68
2022-12-13T06:08:24.371Z,3.66
2022-12-13T06:09:21.851Z,3.63
2022-12-13T06:10:22.161Z,3.63
2022-12-13T06:11:31.680Z,3.60
2022-12-13T06:12:31.158Z,3.60
2022-12-13T06:13:32.144Z,3.63
2022-12-13T06:14:23.717Z,3.60
2022-12-13T06:15:23.071Z,3.63
2022-12-13T06:16:24.465Z,3.62
2022-12-13T06:17:23.207Z,3.60
2022-12-13T06:18:23.376Z,3.62
2022-12-13T06:19:23.567Z,3.62
2022-12-13T06:20:24.800Z,3.62
2022-12-13T06:21:23.875Z,3.65
2022-12-13T06:22:24.054Z,3.63
2022-12-13T06:23:24.234Z,3.68
2022-12-13T06:24:24.435Z,3.66
2022-12-13T06:25:31.219Z,3.65
2022-12-13T06:26:25.745Z,3.65
2022-12-13T06:27:24.913Z,3.65
2022-12-13T06:28:25.085Z,3.66
2022-12-13T06:29:26.057Z,3.66
2022-12-13T06:30:25.442Z,3.66
2022-12-13T06:31:25.617Z,3.65
2022-12-13T06:32:25.796Z,3.66
2022-12-13T06:33:25.974Z,3.63
2022-12-13T06:34:26.166Z,3.63
2022-12-13T06:35:27.909Z,3.60
2022-12-13T06:36:26.514Z,3.62
2022-12-13T06:37:26.705Z,3.63
2022-12-13T06:38:31.721Z,3.62
2022-12-13T06:39:32.692Z,3.63
2022-12-13T06:40:28.194Z,3.65
2022-12-13T06:41:31.983Z,3.65
2022-12-13T06:42:27.514Z,3.66
2022-12-13T06:43:27.685Z,3.66
2022-12-13T06:44:27.880Z,3.68
2022-12-13T06:45:28.012Z,3.69
2022-12-13T06:46:28.226Z,3.63
2022-12-13T06:47:31.770Z,3.63
2022-12-13T06:48:28.522Z,3.63
2022-12-13T06:49:32.542Z,3.65
2022-12-13T06:50:28.863Z,3.63
2022-12-13T06:51:32.431Z,3.66
2022-12-13T06:52:29.192Z,3.68
2022-12-13T06:53:29.379Z,3.66
2022-12-13T06:54:29.561Z,3.66
2022-12-13T06:55:29.710Z,3.68
2022-12-13T06:56:29.874Z,3.66
2022-12-13T06:57:30.060Z,3.65
2022-12-13T06:58:30.276Z,3.63
2022-12-13T06:59:30.431Z,3.63
2022-12-13T07:00:36.956Z,3.62
2022-12-13T07:01:36.976Z,3.63
2022-12-13T07:02:32.064Z,3.62
2022-12-13T07:03:31.160Z,3.59
2022-12-13T07:04:31.439Z,3.60
2022-12-13T07:05:31.450Z,3.60
2022-12-13T07:06:31.646Z,3.60
2022-12-13T07:07:31.800Z,3.60
2022-12-13T07:08:32.046Z,3.59
2022-12-13T07:09:32.189Z,3.59
2022-12-13T07:10:32.338Z,3.60
2022-12-13T07:11:32.503Z,3.59
2022-12-13T07:12:32.668Z,3.60
2022-12-13T07:13:32.856Z,3.58
2022-12-13T07:14:40.743Z,3.58
2022-12-13T07:15:34.318Z,3.56
2022-12-13T07:16:33.382Z,3.58
2022-12-13T07:17:34.715Z,3.58
2022-12-13T07:18:33.739Z,3.59
2022-12-13T07:19:35.331Z,3.59
2022-12-13T07:20:34.156Z,3.60
2022-12-13T07:21:34.266Z,3.58
2022-12-13T07:22:35.672Z,3.56
2022-12-13T07:23:34.637Z,3.51
2022-12-13T07:24:34.837Z,3.53
2022-12-13T07:25:34.996Z,3.51
2022-12-13T07:26:35.184Z,3.55
2022-12-13T07:27:35.358Z,3.55
2022-12-13T07:28:35.548Z,3.55
2022-12-13T07:29:35.746Z,3.55
2022-12-13T07:30:41.098Z,3.50
2022-12-13T07:31:37.124Z,3.51
2022-12-13T07:32:36.281Z,3.55
2022-12-13T07:33:36.437Z,3.55
2022-12-13T07:34:36.625Z,3.58
2022-12-13T07:35:37.083Z,3.60
2022-12-13T07:36:36.966Z,3.65
2022-12-13T07:37:37.135Z,3.65
2022-12-13T07:38:37.325Z,3.66
2022-12-13T07:39:37.514Z,3.68
2022-12-13T07:40:37.730Z,3.74
2022-12-13T07:41:37.855Z,3.74
2022-12-13T07:42:38.034Z,3.73
2022-12-13T07:43:38.195Z,3.73
2022-12-13T07:44:38.390Z,3.70
2022-12-13T07:45:38.535Z,3.74
2022-12-13T07:46:38.761Z,3.78
2022-12-13T07:47:38.901Z,3.77
2022-12-13T07:48:39.084Z,3.77
2022-12-13T07:49:39.284Z,3.80
2022-12-13T07:50:39.442Z,3.81
2022-12-13T07:51:39.634Z,3.81
2022-12-13T07:52:39.813Z,3.87
2022-12-13T07:53:39.972Z,3.88
2022-12-13T07:54:40.173Z,3.91
2022-12-13T07:55:40.352Z,3.91
2022-12-13T07:56:40.511Z,3.94
2022-12-13T07:57:40.692Z,3.96
2022-12-13T07:58:40.872Z,3.95
2022-12-13T07:59:41.100Z,3.95
2022-12-13T08:00:41.231Z,3.99
2022-12-13T08:01:42.497Z,4.01
2022-12-13T08:02:41.592Z,4.01
2022-12-13T08:03:41.765Z,4.05
2022-12-13T08:04:41.971Z,4.05
2022-12-13T08:05:42.194Z,4.06
2022-12-13T08:06:42.291Z,4.08
2022-12-13T08:07:42.474Z,4.06
2022-12-13T08:08:42.766Z,4.08
2022-12-13T08:09:46.720Z,4.10
2022-12-13T08:10:44.013Z,4.10
2022-12-13T08:11:43.152Z,4.08
2022-12-13T08:12:43.328Z,4.10
2022-12-13T08:13:43.497Z,4.10
2022-12-13T08:14:43.685Z,4.12
2022-12-13T08:15:43.896Z,4.12
2022-12-13T08:16:44.052Z,4.12
2022-12-13T08:17:44.198Z,4.12
2022-12-13T08:18:44.373Z,4.14
2022-12-13T08:19:44.560Z,4.17
2022-12-13T08:20:44.738Z,4.16
2022-12-13T08:21:54.589Z,4.13
2022-12-13T08:22:49.624Z,4.17
2022-12-13T08:23:45.258Z,4.17
2022-12-13T08:24:45.420Z,4.19
2022-12-13T08:25:45.590Z,4.19
2022-12-13T08:26:45.758Z,4.20
2022-12-13T08:27:45.948Z,4.23
2022-12-13T08:28:46.139Z,4.28
2022-12-13T08:29:46.338Z,4.31
2022-12-13T08:30:46.480Z,4.34
2022-12-13T08:31:46.702Z,4.37
2022-12-13T08:32:46.859Z,4.40
2022-12-13T08:33:47.011Z,4.41
2022-12-13T08:34:47.187Z,4.44
2022-12-13T08:35:47.327Z,4.45
2022-12-13T08:36:47.547Z,4.49
2022-12-13T08:37:47.705Z,4.52
2022-12-13T08:38:47.887Z,4.53
2022-12-13T08:39:48.085Z,4.56
2022-12-13T08:40:48.277Z,4.58
2022-12-13T08:41:48.447Z,4.55
2022-12-13T08:42:48.582Z,4.59
2022-12-13T08:43:48.766Z,4.62
2022-12-13T08:44:48.984Z,4.67
2022-12-13T08:45:49.085Z,4.66
2022-12-13T08:46:49.309Z,4.67
2022-12-13T08:47:49.405Z,4.67
2022-12-13T08:48:49.656Z,4.70
2022-12-13T08:49:49.814Z,4.71
2022-12-13T08:50:49.981Z,4.73
2022-12-13T08:51:50.123Z,4.75
2022-12-13T08:52:50.286Z,4.80
2022-12-13T08:53:50.464Z,4.86
2022-12-13T08:54:50.643Z,4.92
2022-12-13T08:55:50.817Z,4.97
2022-12-13T08:56:50.953Z,4.99
2022-12-13T08:57:51.154Z,5.02
2022-12-13T08:58:51.324Z,5.02
2022-12-13T08:59:52.026Z,5.04
2022-12-13T09:00:51.726Z,5.05
2022-12-13T09:01:51.856Z,5.02
2022-12-13T09:02:52.061Z,5.02
2022-12-13T09:03:52.180Z,5.02
2022-12-13T09:04:52.385Z,5.02
2022-12-13T09:05:52.576Z,5.04
2022-12-13T09:06:52.702Z,5.00
2022-12-13T09:07:52.945Z,5.00
2022-12-13T09:08:53.178Z,5.02
2022-12-13T09:09:54.952Z,5.00
2022-12-13T09:10:53.432Z,5.00
2022-12-13T09:11:54.591Z,5.05
2022-12-13T09:13:01.707Z,5.05
2022-12-13T09:14:01.246Z,5.05
2022-12-13T09:15:01.667Z,5.07
2022-12-13T09:15:55.434Z,5.04
2022-12-13T09:16:55.546Z,5.07
2022-12-13T09:17:55.652Z,5.07
2022-12-13T09:18:56.420Z,5.11
2022-12-13T09:19:58.067Z,5.11
2022-12-13T09:20:55.185Z,5.08
2022-12-13T09:22:02.145Z,5.05
2022-12-13T09:23:01.532Z,5.04
2022-12-13T09:23:56.613Z,5.00
2022-12-13T09:24:56.818Z,5.00
2022-12-13T09:26:05.147Z,5.04
2022-12-13T09:26:57.588Z,5.07
2022-12-13T09:27:56.331Z,5.08
2022-12-13T09:28:56.498Z,5.08
2022-12-13T09:29:57.698Z,5.12
2022-12-13T09:30:56.820Z,5.14
2022-12-13T09:31:57.019Z,5.14
2022-12-13T09:32:57.169Z,5.18
2022-12-13T09:33:57.389Z,5.20
2022-12-13T09:34:57.539Z,5.23
2022-12-13T09:35:57.701Z,5.25
2022-12-13T09:37:01.358Z,5.29
2022-12-13T09:37:58.059Z,5.29
2022-12-13T09:38:58.237Z,5.32
2022-12-13T09:39:58.449Z,5.36
2022-12-13T09:40:59.636Z,5.38
2022-12-13T09:42:01.317Z,5.43
2022-12-13T09:43:12.310Z,5.44
2022-12-13T09:44:01.189Z,5.44
2022-12-13T09:45:02.299Z,5.47
2022-12-13T09:46:01.009Z,5.46
2022-12-13T09:47:01.038Z,5.46
2022-12-13T09:48:01.272Z,5.44
2022-12-13T09:49:01.151Z,5.46
2022-12-13T09:50:03.791Z,5.46
2022-12-13T09:51:17.243Z,5.48
2022-12-13T09:52:11.073Z,5.51
2022-12-13T09:53:01.746Z,5.50
2022-12-13T09:54:00.946Z,5.53
2022-12-13T09:55:01.117Z,5.51
2022-12-13T09:56:10.481Z,5.53
2022-12-13T09:57:02.459Z,5.53
2022-12-13T09:58:01.617Z,5.54
2022-12-13T09:59:01.775Z,5.57
2022-12-13T10:00:02.327Z,5.62
2022-12-13T10:01:02.158Z,5.62
2022-12-13T10:02:02.367Z,5.65
2022-12-13T10:03:02.480Z,5.68
2022-12-13T10:04:02.724Z,5.71
2022-12-13T10:05:02.854Z,5.66
2022-12-13T10:06:03.014Z,5.71
2022-12-13T10:07:03.170Z,5.71
2022-12-13T10:08:03.364Z,5.72
2022-12-13T10:09:03.522Z,5.73
2022-12-13T10:10:03.722Z,5.79
2022-12-13T10:11:03.883Z,5.75
2022-12-13T10:12:04.043Z,5.75
2022-12-13T10:13:04.195Z,5.75
2022-12-13T10:14:04.394Z,5.79
2022-12-13T10:15:04.751Z,5.82
2022-12-13T10:16:04.764Z,5.83
2022-12-13T10:17:04.954Z,5.83
2022-12-13T10:18:05.070Z,5.83
2022-12-13T10:19:05.226Z,5.83
2022-12-13T10:20:05.440Z,5.84
2022-12-13T10:21:05.572Z,5.86
2022-12-13T10:22:05.764Z,5.89
2022-12-13T10:23:31.857Z,5.91
2022-12-13T10:24:25.221Z,5.97
2022-12-13T10:25:07.301Z,5.99
2022-12-13T10:26:06.505Z,5.99
2022-12-13T10:27:07.631Z,5.99
2022-12-13T10:28:06.822Z,6.01
2022-12-13T10:29:07.016Z,5.98
2022-12-13T10:30:07.231Z,5.99
2022-12-13T10:31:07.372Z,6.02
2022-12-13T10:32:07.577Z,5.99
2022-12-13T10:33:07.740Z,6.02
2022-12-13T10:34:07.932Z,6.01
2022-12-13T10:35:08.134Z,6.04
2022-12-13T10:36:08.291Z,6.08
2022-12-13T10:37:08.499Z,6.11
2022-12-13T10:38:08.658Z,6.12
2022-12-13T10:39:08.803Z,6.16
2022-12-13T10:40:09.002Z,6.17
2022-12-13T10:41:09.171Z,6.19
2022-12-13T10:42:09.366Z,6.26
2022-12-13T10:43:09.549Z,6.27
2022-12-13T10:44:09.750Z,6.30
2022-12-13T10:45:09.929Z,6.31
2022-12-13T10:46:10.131Z,6.30
2022-12-13T10:47:10.240Z,6.28
2022-12-13T10:48:10.434Z,6.33
2022-12-13T10:49:10.579Z,6.36
2022-12-13T10:50:10.786Z,6.36
2022-12-13T10:51:10.984Z,6.36
2022-12-13T10:52:11.118Z,6.33
2022-12-13T10:53:11.258Z,6.33
2022-12-13T10:54:11.447Z,6.30
2022-12-13T10:55:22.751Z,6.33
2022-12-13T10:56:12.796Z,6.30
2022-12-13T10:57:11.949Z,6.30
2022-12-13T10:58:12.128Z,6.33
2022-12-13T10:59:17.204Z,6.31
2022-12-13T11:00:19.402Z,6.35
2022-12-13T11:01:13.685Z,6.36
2022-12-13T11:02:12.872Z,6.39
2022-12-13T11:03:12.987Z,6.38
2022-12-13T11:04:13.171Z,6.36
2022-12-13T11:05:13.354Z,6.38
2022-12-13T11:06:13.585Z,6.36
2022-12-13T11:07:13.727Z,6.36
2022-12-13T11:08:14.855Z,6.36
2022-12-13T11:09:22.818Z,6.35
2022-12-13T11:10:15.274Z,6.30
2022-12-13T11:11:14.458Z,6.31
2022-12-13T11:12:14.639Z,6.31
2022-12-13T11:13:14.784Z,6.35
2022-12-13T11:14:14.924Z,6.30
2022-12-13T11:15:15.136Z,6.33
2022-12-13T11:16:15.341Z,6.33
2022-12-13T11:17:15.455Z,6.35
2022-12-13T11:18:15.644Z,6.31
2022-12-13T11:19:15.891Z,6.35
2022-12-13T11:20:16.024Z,6.42
2022-12-13T11:21:16.214Z,6.41
2022-12-13T11:22:16.416Z,6.42
2022-12-13T11:23:16.584Z,6.44
2022-12-13T11:24:16.741Z,6.42
2022-12-13T11:25:17.914Z,6.41
2022-12-13T11:26:17.071Z,6.44
2022-12-13T11:27:18.232Z,6.45
2022-12-13T11:28:25.906Z,6.46
2022-12-13T11:29:18.576Z,6.48
2022-12-13T11:30:17.803Z,6.48
2022-12-13T11:31:17.965Z,6.46
2022-12-13T11:32:22.477Z,6.45
2022-12-13T11:33:19.299Z,6.46
2022-12-13T11:34:18.483Z,6.46
2022-12-13T11:35:18.684Z,6.42
2022-12-13T11:36:18.834Z,6.39
2022-12-13T11:37:19.018Z,6.36
2022-12-13T11:38:19.185Z,6.31
2022-12-13T11:39:19.345Z,6.30
2022-12-13T11:40:19.540Z,6.31
2022-12-13T11:41:31.260Z,6.31
2022-12-13T11:42:20.862Z,6.28
2022-12-13T11:43:20.032Z,6.28
2022-12-13T11:44:20.205Z,6.27
2022-12-13T11:45:22.559Z,6.28
2022-12-13T11:46:20.622Z,6.26
2022-12-13T11:47:20.724Z,6.26
2022-12-13T11:48:20.910Z,6.26
2022-12-13T11:49:21.090Z,6.26
2022-12-13T11:50:33.153Z,6.24
2022-12-13T11:51:22.430Z,6.22
2022-12-13T11:52:21.610Z,6.24
2022-12-13T11:53:21.983Z,6.24
2022-12-13T11:54:23.524Z,6.24
2022-12-13T11:55:22.171Z,6.22
2022-12-13T11:56:22.301Z,6.19
2022-12-13T11:57:22.471Z,6.19
2022-12-13T11:58:45.865Z,6.20
2022-12-13T11:59:26.870Z,6.19
2022-12-13T12:00:34.044Z,6.20
2022-12-13T12:01:24.169Z,6.19
2022-12-13T12:02:23.418Z,6.22
2022-12-13T12:03:23.545Z,6.24
2022-12-13T12:04:23.679Z,6.27
2022-12-13T12:05:23.922Z,6.24
2022-12-13T12:06:24.029Z,6.26
2022-12-13T12:07:32.829Z,6.27
2022-12-13T12:08:32.792Z,6.28
2022-12-13T12:09:25.546Z,6.28
2022-12-13T12:10:24.728Z,6.28
2022-12-13T12:11:24.857Z,6.31
2022-12-13T12:12:25.038Z,6.33
2022-12-13T12:13:25.237Z,6.35
2022-12-13T12:14:25.408Z,6.33
2022-12-13T12:15:26.835Z,6.36
2022-12-13T12:16:25.777Z,6.36
2022-12-13T12:17:25.912Z,6.38
2022-12-13T12:18:26.414Z,6.42
2022-12-13T12:19:26.253Z,6.42
2022-12-13T12:20:26.523Z,6.45
2022-12-13T12:21:42.709Z,6.45
2022-12-13T12:22:27.817Z,6.48
2022-12-13T12:23:26.936Z,6.52
2022-12-13T12:24:27.127Z,6.49
2022-12-13T12:25:27.354Z,6.52
2022-12-13T12:26:27.486Z,6.51
2022-12-13T12:27:27.677Z,6.46
2022-12-13T12:28:28.085Z,6.46
2022-12-13T12:29:28.015Z,6.48
2022-12-13T12:30:28.217Z,6.46
2022-12-13T12:31:28.437Z,6.45
2022-12-13T12:32:28.506Z,6.48
2022-12-13T12:33:28.695Z,6.45
2022-12-13T12:34:28.992Z,6.42
2022-12-13T12:35:29.062Z,6.44
2022-12-13T12:36:29.194Z,6.46
2022-12-13T12:37:29.384Z,6.45
2022-12-13T12:38:29.593Z,6.46
2022-12-13T12:39:29.753Z,6.48
2022-12-13T12:40:45.617Z,6.49
2022-12-13T12:41:31.118Z,6.48
2022-12-13T12:42:36.619Z,6.48
2022-12-13T12:43:31.843Z,6.46
2022-12-13T12:44:31.347Z,6.45
2022-12-13T12:45:58.195Z,6.46
2022-12-13T12:46:38.465Z,6.42
2022-12-13T12:47:56.436Z,6.44
2022-12-13T12:49:32.498Z,6.46
2022-12-13T12:50:31.629Z,6.45
2022-12-13T12:51:31.809Z,6.42
2022-12-13T12:52:31.973Z,6.36
2022-12-13T12:53:32.155Z,6.36
2022-12-13T12:54:32.913Z,6.35
2022-12-13T12:55:32.552Z,6.31
2022-12-13T12:56:32.694Z,6.35
2022-12-13T12:57:32.873Z,6.36
2022-12-13T12:58:33.040Z,6.36
2022-12-13T12:59:33.212Z,6.39
2022-12-13T13:00:33.411Z,6.38
2022-12-13T13:01:39.085Z,6.38
2022-12-13T13:02:34.741Z,6.38
2022-12-13T13:03:34.361Z,6.39
2022-12-13T13:04:34.071Z,6.31
2022-12-13T13:05:34.282Z,6.28
2022-12-13T13:06:34.424Z,6.28
2022-12-13T13:07:39.761Z,6.30
2022-12-13T13:08:35.767Z,6.30
2022-12-13T13:09:34.965Z,6.30
2022-12-13T13:10:35.152Z,6.27
2022-12-13T13:11:35.300Z,6.27
2022-12-13T13:12:36.515Z,6.24
2022-12-13T13:13:36.925Z,6.20
2022-12-13T13:14:36.824Z,6.22
2022-12-13T13:15:36.041Z,6.20
2022-12-13T13:16:36.140Z,6.22
2022-12-13T13:17:36.327Z,6.17
2022-12-13T13:18:36.469Z,6.17
2022-12-13T13:19:36.667Z,6.17
2022-12-13T13:20:36.885Z,6.17
2022-12-13T13:21:37.019Z,6.17
2022-12-13T13:22:44.343Z,6.20